sensor_id;sensor_type;location;lat;lon;timestamp;temperature;humidity
60287;DHT22;46141;52.382;5.270;2023-08-07T16:44:31;21.90;82.80
60287;DHT22;46141;52.382;5.270;2023-08-07T16:46:57;24.60;59.60
60287;DHT22;46141;52.382;5.270;2023-08-07T16:49:22;24.60;59.30
60287;DHT22;46141;52.382;5.270;2023-08-07T16:51:48;24.60;59.20
60287;DHT22;46141;52.382;5.270;2023-08-07T16:54:14;24.60;59.40
60287;DHT22;46141;52.382;5.270;2023-08-07T16:56:39;24.60;58.90
60287;DHT22;46141;52.382;5.270;2023-08-07T16:59:05;24.60;58.70
60287;DHT22;46141;52.382;5.270;2023-08-07T17:01:31;24.60;58.60
60287;DHT22;46141;52.382;5.270;2023-08-07T17:03:56;24.50;58.60
60287;DHT22;46141;52.382;5.270;2023-08-07T17:06:22;24.50;58.60
60287;DHT22;46141;52.382;5.270;2023-08-07T17:08:48;24.40;58.80
60287;DHT22;46141;52.382;5.270;2023-08-07T17:11:18;24.40;58.70
60287;DHT22;46141;52.382;5.270;2023-08-07T17:13:43;24.40;58.60
60287;DHT22;46141;52.382;5.270;2023-08-07T17:16:09;24.30;59.10
60287;DHT22;46141;52.382;5.270;2023-08-07T17:18:35;24.20;59.50
60287;DHT22;46141;52.382;5.270;2023-08-07T17:21:01;24.20;59.70
60287;DHT22;46141;52.382;5.270;2023-08-07T17:23:26;24.20;59.80
60287;DHT22;46141;52.382;5.270;2023-08-07T17:25:52;24.10;59.50
60287;DHT22;46141;52.382;5.270;2023-08-07T17:28:18;24.00;59.70
60287;DHT22;46141;52.382;5.270;2023-08-07T17:30:43;24.00;60.00
60287;DHT22;46141;52.382;5.270;2023-08-07T17:33:09;23.90;60.30
60287;DHT22;46141;52.382;5.270;2023-08-07T17:35:34;23.90;60.40
60287;DHT22;46141;52.382;5.270;2023-08-07T17:38:01;23.80;60.50
60287;DHT22;46141;52.382;5.270;2023-08-07T17:40:26;23.70;60.40
60287;DHT22;46141;52.382;5.270;2023-08-07T17:42:52;23.60;60.90
60287;DHT22;46141;52.382;5.270;2023-08-07T17:45:18;23.60;60.80
60287;DHT22;46141;52.382;5.270;2023-08-07T17:47:43;23.50;61.10
60287;DHT22;46141;52.382;5.270;2023-08-07T17:50:09;23.50;61.20
60287;DHT22;46141;52.382;5.270;2023-08-07T17:52:38;23.40;61.50
60287;DHT22;46141;52.382;5.270;2023-08-07T17:55:04;23.40;61.80
60287;DHT22;46141;52.382;5.270;2023-08-07T17:57:30;23.30;62.10
60287;DHT22;46141;52.382;5.270;2023-08-07T17:59:55;23.30;62.40
60287;DHT22;46141;52.382;5.270;2023-08-07T18:02:21;23.30;62.60
60287;DHT22;46141;52.382;5.270;2023-08-07T18:04:47;23.20;62.70
60287;DHT22;46141;52.382;5.270;2023-08-07T18:07:12;23.20;62.90
60287;DHT22;46141;52.382;5.270;2023-08-07T18:09:40;23.20;63.10
60287;DHT22;46141;52.382;5.270;2023-08-07T18:12:06;23.10;63.40
60287;DHT22;46141;52.382;5.270;2023-08-07T18:14:33;23.10;63.70
60287;DHT22;46141;52.382;5.270;2023-08-07T18:16:59;23.00;62.70
60287;DHT22;46141;52.382;5.270;2023-08-07T18:19:24;23.00;62.70
60287;DHT22;46141;52.382;5.270;2023-08-07T18:21:50;22.90;63.20
60287;DHT22;46141;52.382;5.270;2023-08-07T18:24:16;22.90;63.60
60287;DHT22;46141;52.382;5.270;2023-08-07T18:26:43;22.80;62.60
60287;DHT22;46141;52.382;5.270;2023-08-07T18:29:09;22.80;62.50
60287;DHT22;46141;52.382;5.270;2023-08-07T18:31:35;22.70;62.50
60287;DHT22;46141;52.382;5.270;2023-08-07T18:34:01;22.70;62.40
60287;DHT22;46141;52.382;5.270;2023-08-07T18:36:28;22.60;62.00
60287;DHT22;46141;52.382;5.270;2023-08-07T18:38:54;22.70;62.40
60287;DHT22;46141;52.382;5.270;2023-08-07T18:41:19;22.70;62.40
60287;DHT22;46141;52.382;5.270;2023-08-07T18:43:45;22.80;62.60
60287;DHT22;46141;52.382;5.270;2023-08-07T18:46:11;22.80;62.80
60287;DHT22;46141;52.382;5.270;2023-08-07T18:48:37;22.80;63.00
60287;DHT22;46141;52.382;5.270;2023-08-07T18:51:03;22.90;63.20
60287;DHT22;46141;52.382;5.270;2023-08-07T18:53:29;22.90;63.30
60287;DHT22;46141;52.382;5.270;2023-08-07T18:55:55;22.90;63.50
60287;DHT22;46141;52.382;5.270;2023-08-07T18:58:21;22.90;63.60
60287;DHT22;46141;52.382;5.270;2023-08-07T19:00:47;22.90;63.80
60287;DHT22;46141;52.382;5.270;2023-08-07T19:03:12;22.90;63.80
60287;DHT22;46141;52.382;5.270;2023-08-07T19:05:38;22.90;63.90
60287;DHT22;46141;52.382;5.270;2023-08-07T19:08:04;22.90;64.00
60287;DHT22;46141;52.382;5.270;2023-08-07T19:10:30;22.90;64.00
60287;DHT22;46141;52.382;5.270;2023-08-07T19:12:55;22.90;64.20
60287;DHT22;46141;52.382;5.270;2023-08-07T19:15:21;22.90;64.30
60287;DHT22;46141;52.382;5.270;2023-08-07T19:17:47;22.90;64.30
60287;DHT22;46141;52.382;5.270;2023-08-07T19:20:12;22.90;64.30
60287;DHT22;46141;52.382;5.270;2023-08-07T19:22:39;22.90;64.30
60287;DHT22;46141;52.382;5.270;2023-08-07T19:25:05;22.90;64.50
60287;DHT22;46141;52.382;5.270;2023-08-07T19:27:30;22.90;64.70
60287;DHT22;46141;52.382;5.270;2023-08-07T19:29:56;22.90;64.70
60287;DHT22;46141;52.382;5.270;2023-08-07T19:32:24;22.90;64.90
60287;DHT22;46141;52.382;5.270;2023-08-07T19:34:49;22.90;65.00
60287;DHT22;46141;52.382;5.270;2023-08-07T19:37:15;22.90;65.80
60287;DHT22;46141;52.382;5.270;2023-08-07T19:39:41;22.90;65.40
60287;DHT22;46141;52.382;5.270;2023-08-07T19:42:07;22.90;65.70
60287;DHT22;46141;52.382;5.270;2023-08-07T19:44:32;22.90;66.00
60287;DHT22;46141;52.382;5.270;2023-08-07T19:46:58;22.90;66.00
60287;DHT22;46141;52.382;5.270;2023-08-07T19:49:23;22.90;66.10
60287;DHT22;46141;52.382;5.270;2023-08-07T19:51:49;22.90;66.20
60287;DHT22;46141;52.382;5.270;2023-08-07T19:54:15;22.90;66.90
60287;DHT22;46141;52.382;5.270;2023-08-07T19:56:40;22.90;66.40
60287;DHT22;46141;52.382;5.270;2023-08-07T19:59:07;22.90;66.40
60287;DHT22;46141;52.382;5.270;2023-08-07T20:01:33;22.90;66.50
60287;DHT22;46141;52.382;5.270;2023-08-07T20:03:59;22.90;66.60
60287;DHT22;46141;52.382;5.270;2023-08-07T20:06:24;22.90;66.70
60287;DHT22;46141;52.382;5.270;2023-08-07T20:08:50;22.90;66.90
60287;DHT22;46141;52.382;5.270;2023-08-07T20:11:16;22.90;66.90
60287;DHT22;46141;52.382;5.270;2023-08-07T20:13:42;22.90;67.00
60287;DHT22;46141;52.382;5.270;2023-08-07T20:16:09;22.90;67.00
60287;DHT22;46141;52.382;5.270;2023-08-07T20:18:35;22.90;67.30
60287;DHT22;46141;52.382;5.270;2023-08-07T20:21:01;22.90;67.80
60287;DHT22;46141;52.382;5.270;2023-08-07T20:23:26;22.90;68.30
60287;DHT22;46141;52.382;5.270;2023-08-07T20:25:53;22.90;68.70
60287;DHT22;46141;52.382;5.270;2023-08-07T20:28:19;22.90;69.20
60287;DHT22;46141;52.382;5.270;2023-08-07T20:30:45;22.90;69.20
60287;DHT22;46141;52.382;5.270;2023-08-07T20:33:10;22.90;69.30
60287;DHT22;46141;52.382;5.270;2023-08-07T20:35:36;22.90;69.40
60287;DHT22;46141;52.382;5.270;2023-08-07T20:38:02;22.90;69.40
60287;DHT22;46141;52.382;5.270;2023-08-07T20:40:28;22.90;69.50
60287;DHT22;46141;52.382;5.270;2023-08-07T20:42:56;22.90;69.60
60287;DHT22;46141;52.382;5.270;2023-08-07T20:45:24;22.90;69.70
60287;DHT22;46141;52.382;5.270;2023-08-07T20:47:50;22.90;69.80
60287;DHT22;46141;52.382;5.270;2023-08-07T20:50:15;22.90;69.80
60287;DHT22;46141;52.382;5.270;2023-08-07T20:52:41;22.90;70.00
60287;DHT22;46141;52.382;5.270;2023-08-07T20:55:07;22.90;70.00
60287;DHT22;46141;52.382;5.270;2023-08-07T20:57:33;22.80;70.10
60287;DHT22;46141;52.382;5.270;2023-08-07T21:00:03;22.80;70.20
60287;DHT22;46141;52.382;5.270;2023-08-07T21:02:31;22.80;70.30
60287;DHT22;46141;52.382;5.270;2023-08-07T21:04:56;22.80;70.30
60287;DHT22;46141;52.382;5.270;2023-08-07T21:07:22;22.80;70.30
60287;DHT22;46141;52.382;5.270;2023-08-07T21:09:49;22.80;70.40
60287;DHT22;46141;52.382;5.270;2023-08-07T21:12:14;22.80;70.50
60287;DHT22;46141;52.382;5.270;2023-08-07T21:14:40;22.80;70.60
60287;DHT22;46141;52.382;5.270;2023-08-07T21:17:05;22.80;70.50
60287;DHT22;46141;52.382;5.270;2023-08-07T21:19:32;22.80;70.60
60287;DHT22;46141;52.382;5.270;2023-08-07T21:21:58;22.80;70.60
60287;DHT22;46141;52.382;5.270;2023-08-07T21:24:24;22.80;70.70
60287;DHT22;46141;52.382;5.270;2023-08-07T21:26:49;22.80;70.70
60287;DHT22;46141;52.382;5.270;2023-08-07T21:29:15;22.80;70.70
60287;DHT22;46141;52.382;5.270;2023-08-07T21:31:41;22.80;70.80
60287;DHT22;46141;52.382;5.270;2023-08-07T21:34:09;22.80;70.90
60287;DHT22;46141;52.382;5.270;2023-08-07T21:36:35;22.80;70.80
60287;DHT22;46141;52.382;5.270;2023-08-07T21:39:00;22.80;71.00
60287;DHT22;46141;52.382;5.270;2023-08-07T21:41:26;22.70;71.00
60287;DHT22;46141;52.382;5.270;2023-08-07T21:43:52;22.80;71.10
60287;DHT22;46141;52.382;5.270;2023-08-07T21:46:18;22.80;71.20
60287;DHT22;46141;52.382;5.270;2023-08-07T21:48:44;22.80;71.30
60287;DHT22;46141;52.382;5.270;2023-08-07T21:51:10;22.80;71.30
60287;DHT22;46141;52.382;5.270;2023-08-07T21:53:35;22.80;71.40
60287;DHT22;46141;52.382;5.270;2023-08-07T21:56:01;22.80;71.40
60287;DHT22;46141;52.382;5.270;2023-08-07T21:58:27;22.80;71.40
60287;DHT22;46141;52.382;5.270;2023-08-07T22:00:52;22.80;72.20
60287;DHT22;46141;52.382;5.270;2023-08-07T22:03:18;22.80;71.60
60287;DHT22;46141;52.382;5.270;2023-08-07T22:05:44;22.70;71.60
60287;DHT22;46141;52.382;5.270;2023-08-07T22:08:09;22.70;71.80
60287;DHT22;46141;52.382;5.270;2023-08-07T22:10:35;22.80;71.90
60287;DHT22;46141;52.382;5.270;2023-08-07T22:13:01;22.70;71.90
60287;DHT22;46141;52.382;5.270;2023-08-07T22:15:26;22.70;71.90
60287;DHT22;46141;52.382;5.270;2023-08-07T22:17:53;22.70;71.90
60287;DHT22;46141;52.382;5.270;2023-08-07T22:20:19;22.70;71.90
60287;DHT22;46141;52.382;5.270;2023-08-07T22:22:45;22.70;71.90
60287;DHT22;46141;52.382;5.270;2023-08-07T22:25:11;22.70;72.00
60287;DHT22;46141;52.382;5.270;2023-08-07T22:27:37;22.70;72.00
60287;DHT22;46141;52.382;5.270;2023-08-07T22:30:04;22.70;72.10
60287;DHT22;46141;52.382;5.270;2023-08-07T22:32:33;22.70;72.10
60287;DHT22;46141;52.382;5.270;2023-08-07T22:34:58;22.70;72.10
60287;DHT22;46141;52.382;5.270;2023-08-07T22:37:25;22.70;72.20
60287;DHT22;46141;52.382;5.270;2023-08-07T22:39:51;22.70;72.20
60287;DHT22;46141;52.382;5.270;2023-08-07T22:42:16;22.70;72.20
60287;DHT22;46141;52.382;5.270;2023-08-07T22:44:42;22.70;72.30
60287;DHT22;46141;52.382;5.270;2023-08-07T22:47:07;22.70;72.30
60287;DHT22;46141;52.382;5.270;2023-08-07T22:49:33;22.70;72.30
60287;DHT22;46141;52.382;5.270;2023-08-07T22:51:59;22.70;72.40
60287;DHT22;46141;52.382;5.270;2023-08-07T22:54:24;22.70;73.00
60287;DHT22;46141;52.382;5.270;2023-08-07T22:56:51;22.60;72.40
60287;DHT22;46141;52.382;5.270;2023-08-07T22:59:17;22.60;72.40
60287;DHT22;46141;52.382;5.270;2023-08-07T23:01:42;22.60;72.50
60287;DHT22;46141;52.382;5.270;2023-08-07T23:04:08;22.60;72.60
60287;DHT22;46141;52.382;5.270;2023-08-07T23:06:33;22.60;72.60
60287;DHT22;46141;52.382;5.270;2023-08-07T23:08:59;22.60;72.70
60287;DHT22;46141;52.382;5.270;2023-08-07T23:11:26;22.60;72.70
60287;DHT22;46141;52.382;5.270;2023-08-07T23:13:53;22.60;72.70
60287;DHT22;46141;52.382;5.270;2023-08-07T23:16:19;22.60;72.80
60287;DHT22;46141;52.382;5.270;2023-08-07T23:18:44;22.60;72.80
60287;DHT22;46141;52.382;5.270;2023-08-07T23:21:10;22.60;72.90
60287;DHT22;46141;52.382;5.270;2023-08-07T23:23:36;22.60;72.90
60287;DHT22;46141;52.382;5.270;2023-08-07T23:26:01;22.60;73.00
60287;DHT22;46141;52.382;5.270;2023-08-07T23:28:27;22.60;73.10
60287;DHT22;46141;52.382;5.270;2023-08-07T23:30:52;22.60;73.10
60287;DHT22;46141;52.382;5.270;2023-08-07T23:33:18;22.50;73.10
60287;DHT22;46141;52.382;5.270;2023-08-07T23:35:44;22.60;73.10
60287;DHT22;46141;52.382;5.270;2023-08-07T23:38:09;22.50;73.20
60287;DHT22;46141;52.382;5.270;2023-08-07T23:40:39;22.50;73.20
60287;DHT22;46141;52.382;5.270;2023-08-07T23:43:07;22.50;73.20
60287;DHT22;46141;52.382;5.270;2023-08-07T23:45:33;22.50;73.30
60287;DHT22;46141;52.382;5.270;2023-08-07T23:47:59;22.50;73.40
60287;DHT22;46141;52.382;5.270;2023-08-07T23:50:24;22.50;73.40
60287;DHT22;46141;52.382;5.270;2023-08-07T23:52:50;22.50;73.50
60287;DHT22;46141;52.382;5.270;2023-08-07T23:55:16;22.50;73.50
60287;DHT22;46141;52.382;5.270;2023-08-07T23:57:41;22.50;73.60
